sensor_id;sensor_type;location;lat;lon;timestamp;pressure;altitude;pressure_sealevel;temperature;humidity
163;BME280;3946;48.958;8.284;2023-04-04T00:01:44;101335.66;;;2.37;65.74
163;BME280;3946;48.958;8.284;2023-04-04T00:04:30;101330.56;;;2.34;65.80
163;BME280;3946;48.958;8.284;2023-04-04T00:07:15;101333.19;;;2.29;65.84
163;BME280;3946;48.958;8.284;2023-04-04T00:10:00;101310.13;;;2.34;65.92
163;BME280;3946;48.958;8.284;2023-04-04T00:12:45;101310.13;;;2.32;66.00
163;BME280;3946;48.958;8.284;2023-04-04T00:15:30;101313.66;;;2.27;66.37
163;BME280;3946;48.958;8.284;2023-04-04T00:18:15;101314.44;;;2.29;66.33
163;BME280;3946;48.958;8.284;2023-04-04T00:21:02;101316.25;;;2.22;66.68
163;BME280;3946;48.958;8.284;2023-04-04T00:23:47;101302.59;;;2.23;65.63
163;BME280;3946;48.958;8.284;2023-04-04T00:26:32;101309.44;;;2.23;66.22
163;BME280;3946;48.958;8.284;2023-04-04T00:29:16;101311.19;;;2.19;66.29
163;BME280;3946;48.958;8.284;2023-04-04T00:32:01;101318.13;;;2.11;66.11
163;BME280;3946;48.958;8.284;2023-04-04T00:34:50;101316.38;;;2.13;66.48
163;BME280;3946;48.958;8.284;2023-04-04T00:37:36;101330.16;;;2.03;67.09
163;BME280;3946;48.958;8.284;2023-04-04T00:40:21;101333.56;;;2.02;67.34
163;BME280;3946;48.958;8.284;2023-04-04T00:43:07;101337.94;;;1.94;67.17
163;BME280;3946;48.958;8.284;2023-04-04T00:45:52;101340.44;;;1.95;67.31
163;BME280;3946;48.958;8.284;2023-04-04T00:48:37;101344.00;;;1.85;67.66
163;BME280;3946;48.958;8.284;2023-04-04T00:51:24;101351.72;;;1.79;68.87
163;BME280;3946;48.958;8.284;2023-04-04T00:54:11;101352.66;;;1.73;68.57
163;BME280;3946;48.958;8.284;2023-04-04T00:56:56;101368.81;;;1.74;69.09
163;BME280;3946;48.958;8.284;2023-04-04T00:59:41;101356.97;;;1.67;68.77
163;BME280;3946;48.958;8.284;2023-04-04T01:02:27;101364.69;;;1.62;70.06
163;BME280;3946;48.958;8.284;2023-04-04T01:05:12;101363.00;;;1.61;69.49
163;BME280;3946;48.958;8.284;2023-04-04T01:07:59;101374.13;;;1.54;69.99
163;BME280;3946;48.958;8.284;2023-04-04T01:10:47;101362.22;;;1.53;70.21
163;BME280;3946;48.958;8.284;2023-04-04T01:13:32;101360.53;;;1.52;69.93
163;BME280;3946;48.958;8.284;2023-04-04T01:16:18;101363.97;;;1.50;70.00
163;BME280;3946;48.958;8.284;2023-04-04T01:19:08;101364.03;;;1.45;70.16
163;BME280;3946;48.958;8.284;2023-04-04T01:21:56;101366.63;;;1.39;70.32
163;BME280;3946;48.958;8.284;2023-04-04T01:24:41;101372.59;;;1.36;71.34
163;BME280;3946;48.958;8.284;2023-04-04T01:27:28;101367.50;;;1.35;70.91
163;BME280;3946;48.958;8.284;2023-04-04T01:30:22;101366.69;;;1.33;71.40
163;BME280;3946;48.958;8.284;2023-04-04T01:33:08;101364.22;;;1.22;71.17
163;BME280;3946;48.958;8.284;2023-04-04T01:35:59;101370.16;;;1.26;71.54
163;BME280;3946;48.958;8.284;2023-04-04T01:38:48;101366.00;;;1.14;71.77
163;BME280;3946;48.958;8.284;2023-04-04T01:41:36;101360.06;;;1.14;72.40
163;BME280;3946;48.958;8.284;2023-04-04T01:44:24;101364.34;;;1.10;72.22
163;BME280;3946;48.958;8.284;2023-04-04T01:47:11;101378.09;;;0.92;73.05
163;BME280;3946;48.958;8.284;2023-04-04T01:49:57;101366.16;;;0.97;73.30
163;BME280;3946;48.958;8.284;2023-04-04T01:52:43;101374.72;;;0.89;72.71
163;BME280;3946;48.958;8.284;2023-04-04T01:55:27;101377.25;;;0.92;73.44
163;BME280;3946;48.958;8.284;2023-04-04T01:58:13;101373.88;;;0.87;73.77
163;BME280;3946;48.958;8.284;2023-04-04T02:01:00;101369.63;;;0.89;73.15
163;BME280;3946;48.958;8.284;2023-04-04T02:03:45;101367.06;;;0.89;73.23
163;BME280;3946;48.958;8.284;2023-04-04T02:06:31;101361.97;;;0.90;72.88
163;BME280;3946;48.958;8.284;2023-04-04T02:09:17;101356.81;;;0.95;72.95
163;BME280;3946;48.958;8.284;2023-04-04T02:12:03;101365.47;;;0.76;74.06
163;BME280;3946;48.958;8.284;2023-04-04T02:14:49;101368.03;;;0.73;74.10
163;BME280;3946;48.958;8.284;2023-04-04T02:17:35;101364.53;;;0.84;73.70
163;BME280;3946;48.958;8.284;2023-04-04T02:20:20;101366.31;;;0.79;73.20
163;BME280;3946;48.958;8.284;2023-04-04T02:23:05;101367.19;;;0.69;73.56
163;BME280;3946;48.958;8.284;2023-04-04T02:25:52;101350.19;;;0.69;73.74
163;BME280;3946;48.958;8.284;2023-04-04T02:28:37;101347.63;;;0.76;73.15
163;BME280;3946;48.958;8.284;2023-04-04T02:31:22;101334.88;;;0.74;72.97
163;BME280;3946;48.958;8.284;2023-04-04T02:34:09;101336.53;;;0.80;72.97
163;BME280;3946;48.958;8.284;2023-04-04T02:36:54;101326.28;;;0.84;72.67
163;BME280;3946;48.958;8.284;2023-04-04T02:39:40;101329.75;;;0.80;72.73
163;BME280;3946;48.958;8.284;2023-04-04T02:42:25;101332.31;;;0.79;72.90
163;BME280;3946;48.958;8.284;2023-04-04T02:45:12;101328.06;;;0.78;73.61
163;BME280;3946;48.958;8.284;2023-04-04T02:48:02;101332.31;;;0.74;73.52
163;BME280;3946;48.958;8.284;2023-04-04T02:50:57;101334.03;;;0.72;73.57
163;BME280;3946;48.958;8.284;2023-04-04T02:53:42;101331.50;;;0.69;73.72
163;BME280;3946;48.958;8.284;2023-04-04T02:56:39;101345.19;;;0.60;74.19
163;BME280;3946;48.958;8.284;2023-04-04T02:59:24;101352.06;;;0.48;74.78
163;BME280;3946;48.958;8.284;2023-04-04T03:02:10;101347.75;;;0.56;74.03
163;BME280;3946;48.958;8.284;2023-04-04T03:04:54;101338.38;;;0.62;74.23
163;BME280;3946;48.958;8.284;2023-04-04T03:07:41;101332.44;;;0.62;73.85
163;BME280;3946;48.958;8.284;2023-04-04T03:10:26;101338.38;;;0.59;74.43
163;BME280;3946;48.958;8.284;2023-04-04T03:13:13;101327.31;;;0.63;74.03
163;BME280;3946;48.958;8.284;2023-04-04T03:15:58;101342.66;;;0.53;73.84
163;BME280;3946;48.958;8.284;2023-04-04T03:18:47;101346.91;;;0.54;74.48
163;BME280;3946;48.958;8.284;2023-04-04T03:21:34;101351.22;;;0.47;74.78
163;BME280;3946;48.958;8.284;2023-04-04T03:24:20;101347.81;;;0.48;74.85
163;BME280;3946;48.958;8.284;2023-04-04T03:27:05;101356.44;;;0.29;75.01
163;BME280;3946;48.958;8.284;2023-04-04T03:29:50;101349.56;;;0.40;74.53
163;BME280;3946;48.958;8.284;2023-04-04T03:32:35;101345.28;;;0.42;74.43
163;BME280;3946;48.958;8.284;2023-04-04T03:35:22;101349.56;;;0.40;75.02
163;BME280;3946;48.958;8.284;2023-04-04T03:38:07;101347.00;;;0.39;74.64
163;BME280;3946;48.958;8.284;2023-04-04T03:41:01;101341.06;;;0.35;74.77
163;BME280;3946;48.958;8.284;2023-04-04T03:43:46;101348.78;;;0.29;75.28
163;BME280;3946;48.958;8.284;2023-04-04T03:46:32;101352.97;;;0.33;75.28
163;BME280;3946;48.958;8.284;2023-04-04T03:49:17;101344.47;;;0.37;75.29
163;BME280;3946;48.958;8.284;2023-04-04T03:52:02;101341.13;;;0.29;74.98
163;BME280;3946;48.958;8.284;2023-04-04T03:54:48;101341.94;;;0.35;75.02
163;BME280;3946;48.958;8.284;2023-04-04T03:57:34;101350.50;;;0.25;74.92
163;BME280;3946;48.958;8.284;2023-04-04T04:00:20;101350.50;;;0.25;75.95
163;BME280;3946;48.958;8.284;2023-04-04T04:03:05;101351.34;;;0.23;74.74
163;BME280;3946;48.958;8.284;2023-04-04T04:05:50;101350.50;;;0.18;75.24
163;BME280;3946;48.958;8.284;2023-04-04T04:08:36;101356.44;;;0.23;74.91
163;BME280;3946;48.958;8.284;2023-04-04T04:11:21;101354.75;;;0.22;75.28
163;BME280;3946;48.958;8.284;2023-04-04T04:14:07;101363.28;;;0.16;75.00
163;BME280;3946;48.958;8.284;2023-04-04T04:16:54;101356.50;;;0.11;75.79
163;BME280;3946;48.958;8.284;2023-04-04T04:19:39;101347.97;;;0.19;75.21
163;BME280;3946;48.958;8.284;2023-04-04T04:22:25;101353.06;;;0.18;75.45
163;BME280;3946;48.958;8.284;2023-04-04T04:25:10;101353.09;;;0.16;75.79
163;BME280;3946;48.958;8.284;2023-04-04T04:27:56;101349.66;;;0.20;75.25
163;BME280;3946;48.958;8.284;2023-04-04T04:30:45;101341.16;;;0.18;75.07
163;BME280;3946;48.958;8.284;2023-04-04T04:33:32;101347.97;;;0.18;75.03
163;BME280;3946;48.958;8.284;2023-04-04T04:36:20;101349.69;;;0.16;75.38
163;BME280;3946;48.958;8.284;2023-04-04T04:39:17;101358.19;;;0.13;75.68
163;BME280;3946;48.958;8.284;2023-04-04T04:42:16;101354.81;;;0.11;75.12
163;BME280;3946;48.958;8.284;2023-04-04T04:45:08;101364.16;;;0.05;75.54
163;BME280;3946;48.958;8.284;2023-04-04T04:47:58;101355.66;;;0.15;75.38
163;BME280;3946;48.958;8.284;2023-04-04T04:50:43;101366.72;;;0.09;76.19
163;BME280;3946;48.958;8.284;2023-04-04T04:53:30;101364.16;;;0.08;75.31
163;BME280;3946;48.958;8.284;2023-04-04T04:56:16;101360.78;;;0.06;75.64
163;BME280;3946;48.958;8.284;2023-04-04T04:59:04;101363.31;;;0.12;75.01
163;BME280;3946;48.958;8.284;2023-04-04T05:01:53;101359.91;;;0.05;76.07
163;BME280;3946;48.958;8.284;2023-04-04T05:04:39;101365.00;;;0.08;76.10
163;BME280;3946;48.958;8.284;2023-04-04T05:07:29;101370.09;;;0.07;76.40
163;BME280;3946;48.958;8.284;2023-04-04T05:10:15;101378.59;;;0.04;76.29
163;BME280;3946;48.958;8.284;2023-04-04T05:13:01;101376.06;;;0.03;76.23
163;BME280;3946;48.958;8.284;2023-04-04T05:15:51;101372.66;;;0.07;76.62
163;BME280;3946;48.958;8.284;2023-04-04T05:18:38;101373.50;;;0.10;76.17
163;BME280;3946;48.958;8.284;2023-04-04T05:21:28;101372.66;;;0.08;76.21
163;BME280;3946;48.958;8.284;2023-04-04T05:24:15;101365.84;;;0.16;75.10
163;BME280;3946;48.958;8.284;2023-04-04T05:27:01;101372.66;;;0.11;76.02
163;BME280;3946;48.958;8.284;2023-04-04T05:29:52;101373.47;;;0.15;76.08
163;BME280;3946;48.958;8.284;2023-04-04T05:32:38;101374.28;;;0.21;76.55
163;BME280;3946;48.958;8.284;2023-04-04T05:35:28;101372.56;;;0.29;76.39
163;BME280;3946;48.958;8.284;2023-04-04T05:38:16;101371.66;;;0.33;76.15
163;BME280;3946;48.958;8.284;2023-04-04T05:41:03;101354.53;;;0.61;75.39
163;BME280;3946;48.958;8.284;2023-04-04T05:43:49;101290.41;;;1.02;72.66
163;BME280;3946;48.958;8.284;2023-04-04T05:46:38;101295.03;;;1.48;71.39
163;BME280;3946;48.958;8.284;2023-04-04T05:49:24;101301.81;;;1.51;71.78
163;BME280;3946;48.958;8.284;2023-04-04T05:52:15;101315.72;;;1.27;71.55
163;BME280;3946;48.958;8.284;2023-04-04T05:55:02;101323.38;;;1.25;72.64
163;BME280;3946;48.958;8.284;2023-04-04T05:57:50;101327.69;;;1.16;72.73
163;BME280;3946;48.958;8.284;2023-04-04T06:00:40;101330.38;;;1.05;72.01
163;BME280;3946;48.958;8.284;2023-04-04T06:03:26;101325.16;;;1.16;72.28
163;BME280;3946;48.958;8.284;2023-04-04T06:06:14;101329.34;;;1.24;72.75
163;BME280;3946;48.958;8.284;2023-04-04T06:08:59;101314.84;;;1.29;72.19
163;BME280;3946;48.958;8.284;2023-04-04T06:11:47;101319.81;;;1.42;71.83
163;BME280;3946;48.958;8.284;2023-04-04T06:14:32;101316.31;;;1.49;70.85
163;BME280;3946;48.958;8.284;2023-04-04T06:17:20;101302.59;;;1.59;70.94
163;BME280;3946;48.958;8.284;2023-04-04T06:20:06;101287.13;;;1.69;70.07
163;BME280;3946;48.958;8.284;2023-04-04T06:22:51;101298.19;;;1.71;70.80
163;BME280;3946;48.958;8.284;2023-04-04T06:25:37;101286.97;;;1.82;69.61
163;BME280;3946;48.958;8.284;2023-04-04T06:28:24;101284.53;;;1.74;69.41
163;BME280;3946;48.958;8.284;2023-04-04T06:31:10;101290.31;;;1.87;70.02
163;BME280;3946;48.958;8.284;2023-04-04T06:33:54;101272.13;;;2.11;69.05
163;BME280;3946;48.958;8.284;2023-04-04T06:36:42;101274.84;;;1.97;68.60
163;BME280;3946;48.958;8.284;2023-04-04T06:39:29;101267.91;;;2.07;68.68
163;BME280;3946;48.958;8.284;2023-04-04T06:42:19;101254.34;;;2.02;68.29
163;BME280;3946;48.958;8.284;2023-04-04T06:45:09;101255.88;;;2.12;67.84
163;BME280;3946;48.958;8.284;2023-04-04T06:47:54;101242.97;;;2.23;67.80
163;BME280;3946;48.958;8.284;2023-04-04T06:50:39;101236.19;;;2.20;67.34
163;BME280;3946;48.958;8.284;2023-04-04T06:53:28;101229.66;;;2.55;67.12
163;BME280;3946;48.958;8.284;2023-04-04T06:56:13;101214.38;;;2.52;66.45
163;BME280;3946;48.958;8.284;2023-04-04T06:58:58;101231.34;;;2.57;66.85
163;BME280;3946;48.958;8.284;2023-04-04T07:01:44;101217.19;;;2.86;65.92
163;BME280;3946;48.958;8.284;2023-04-04T07:04:29;101199.28;;;2.86;65.21
163;BME280;3946;48.958;8.284;2023-04-04T07:07:17;101183.72;;;2.95;64.92
163;BME280;3946;48.958;8.284;2023-04-04T07:10:02;101174.16;;;3.06;63.67
163;BME280;3946;48.958;8.284;2023-04-04T07:12:47;101182.59;;;3.09;64.08
163;BME280;3946;48.958;8.284;2023-04-04T07:15:33;101160.41;;;3.10;63.06
163;BME280;3946;48.958;8.284;2023-04-04T07:18:20;101164.47;;;3.20;63.18
163;BME280;3946;48.958;8.284;2023-04-04T07:21:05;101156.94;;;3.12;62.71
163;BME280;3946;48.958;8.284;2023-04-04T07:23:50;101148.78;;;3.35;62.43
163;BME280;3946;48.958;8.284;2023-04-04T07:26:36;101132.19;;;3.53;61.70
163;BME280;3946;48.958;8.284;2023-04-04T07:29:23;101123.97;;;3.76;61.11
163;BME280;3946;48.958;8.284;2023-04-04T07:32:08;101095.91;;;3.71;60.63
163;BME280;3946;48.958;8.284;2023-04-04T07:34:58;101102.91;;;3.63;60.16
163;BME280;3946;48.958;8.284;2023-04-04T07:37:43;101104.19;;;3.81;60.38
163;BME280;3946;48.958;8.284;2023-04-04T07:40:30;101093.19;;;4.11;59.92
163;BME280;3946;48.958;8.284;2023-04-04T07:43:14;101087.50;;;4.00;59.28
163;BME280;3946;48.958;8.284;2023-04-04T07:46:00;101106.25;;;4.02;60.37
163;BME280;3946;48.958;8.284;2023-04-04T07:48:45;101073.91;;;3.97;59.30
163;BME280;3946;48.958;8.284;2023-04-04T07:51:31;101074.16;;;3.88;58.64
163;BME280;3946;48.958;8.284;2023-04-04T07:54:18;101077.75;;;4.14;58.80
163;BME280;3946;48.958;8.284;2023-04-04T07:57:03;101067.91;;;4.30;58.56
163;BME280;3946;48.958;8.284;2023-04-04T07:59:48;101047.47;;;4.27;57.94
163;BME280;3946;48.958;8.284;2023-04-04T08:02:34;101060.13;;;4.35;58.01
163;BME280;3946;48.958;8.284;2023-04-04T08:05:19;101038.31;;;4.49;56.94
163;BME280;3946;48.958;8.284;2023-04-04T08:08:05;101040.47;;;4.65;56.85
163;BME280;3946;48.958;8.284;2023-04-04T08:10:50;101057.78;;;4.56;57.27
163;BME280;3946;48.958;8.284;2023-04-04T08:13:36;101036.59;;;4.50;56.64
163;BME280;3946;48.958;8.284;2023-04-04T08:16:21;101046.34;;;4.68;56.91
163;BME280;3946;48.958;8.284;2023-04-04T08:19:07;101044.69;;;4.67;56.94
163;BME280;3946;48.958;8.284;2023-04-04T08:21:52;101024.69;;;5.06;55.94
163;BME280;3946;48.958;8.284;2023-04-04T08:24:40;101010.16;;;5.05;55.56
163;BME280;3946;48.958;8.284;2023-04-04T08:27:25;101015.88;;;5.15;55.34
163;BME280;3946;48.958;8.284;2023-04-04T08:30:12;101015.91;;;5.13;55.36
163;BME280;3946;48.958;8.284;2023-04-04T08:32:57;101022.31;;;5.00;55.04
163;BME280;3946;48.958;8.284;2023-04-04T08:35:42;100991.63;;;5.23;54.39
163;BME280;3946;48.958;8.284;2023-04-04T08:38:28;101017.03;;;5.05;55.05
163;BME280;3946;48.958;8.284;2023-04-04T08:41:15;101005.97;;;5.03;55.31
163;BME280;3946;48.958;8.284;2023-04-04T08:44:01;101027.41;;;5.56;55.27
163;BME280;3946;48.958;8.284;2023-04-04T08:46:48;100998.47;;;5.51;53.92
163;BME280;3946;48.958;8.284;2023-04-04T08:49:37;101026.56;;;5.82;54.91
163;BME280;3946;48.958;8.284;2023-04-04T08:52:23;100970.16;;;5.77;52.48
163;BME280;3946;48.958;8.284;2023-04-04T08:55:11;100960.66;;;5.79;52.54
163;BME280;3946;48.958;8.284;2023-04-04T08:57:58;100971.16;;;6.23;52.44
163;BME280;3946;48.958;8.284;2023-04-04T09:00:43;100964.91;;;6.30;52.22
163;BME280;3946;48.958;8.284;2023-04-04T09:03:30;100946.16;;;6.26;51.84
163;BME280;3946;48.958;8.284;2023-04-04T09:06:17;100936.97;;;5.96;51.25
163;BME280;3946;48.958;8.284;2023-04-04T09:09:07;100948.50;;;6.09;51.69
163;BME280;3946;48.958;8.284;2023-04-04T09:11:57;100959.16;;;6.47;52.78
163;BME280;3946;48.958;8.284;2023-04-04T09:14:49;100913.44;;;6.75;50.12
163;BME280;3946;48.958;8.284;2023-04-04T09:17:41;100960.94;;;6.45;51.81
163;BME280;3946;48.958;8.284;2023-04-04T09:20:41;100923.06;;;6.48;50.67
163;BME280;3946;48.958;8.284;2023-04-04T09:23:28;100910.56;;;6.38;50.99
163;BME280;3946;48.958;8.284;2023-04-04T09:26:16;100954.00;;;6.47;51.19
163;BME280;3946;48.958;8.284;2023-04-04T09:29:02;100958.25;;;6.48;51.88
163;BME280;3946;48.958;8.284;2023-04-04T09:31:49;100949.56;;;6.27;50.90
163;BME280;3946;48.958;8.284;2023-04-04T09:34:39;100912.59;;;6.29;50.93
163;BME280;3946;48.958;8.284;2023-04-04T09:37:31;100912.72;;;6.93;50.02
163;BME280;3946;48.958;8.284;2023-04-04T09:40:17;100857.13;;;6.88;48.40
163;BME280;3946;48.958;8.284;2023-04-04T09:43:06;100865.91;;;7.04;47.97
163;BME280;3946;48.958;8.284;2023-04-04T09:45:53;100886.00;;;6.74;48.54
163;BME280;3946;48.958;8.284;2023-04-04T09:48:47;100918.22;;;6.84;49.84
163;BME280;3946;48.958;8.284;2023-04-04T09:51:33;100922.16;;;6.93;49.91
163;BME280;3946;48.958;8.284;2023-04-04T09:54:21;100924.91;;;6.88;50.11
163;BME280;3946;48.958;8.284;2023-04-04T09:57:07;100907.84;;;6.86;49.96
163;BME280;3946;48.958;8.284;2023-04-04T09:59:56;100909.19;;;6.96;50.12
163;BME280;3946;48.958;8.284;2023-04-04T10:02:46;100930.16;;;7.29;50.24
163;BME280;3946;48.958;8.284;2023-04-04T10:05:37;100871.47;;;7.56;48.32
163;BME280;3946;48.958;8.284;2023-04-04T10:08:22;100899.88;;;7.54;49.35
163;BME280;3946;48.958;8.284;2023-04-04T10:11:08;100923.16;;;7.53;49.55
163;BME280;3946;48.958;8.284;2023-04-04T10:13:55;100939.59;;;7.50;49.89
163;BME280;3946;48.958;8.284;2023-04-04T10:16:43;100920.88;;;7.65;49.20
163;BME280;3946;48.958;8.284;2023-04-04T10:19:29;100888.78;;;7.72;48.59
163;BME280;3946;48.958;8.284;2023-04-04T10:22:15;100884.75;;;7.47;47.90
163;BME280;3946;48.958;8.284;2023-04-04T10:25:03;100893.06;;;7.53;47.96
163;BME280;3946;48.958;8.284;2023-04-04T10:27:48;100905.28;;;7.68;48.08
163;BME280;3946;48.958;8.284;2023-04-04T10:30:39;100875.25;;;7.67;48.21
163;BME280;3946;48.958;8.284;2023-04-04T10:33:33;100899.91;;;7.93;48.45
163;BME280;3946;48.958;8.284;2023-04-04T10:36:25;100871.63;;;7.71;47.78
163;BME280;3946;48.958;8.284;2023-04-04T10:39:17;100906.91;;;7.71;48.46
163;BME280;3946;48.958;8.284;2023-04-04T10:42:05;100876.91;;;7.68;47.94
163;BME280;3946;48.958;8.284;2023-04-04T10:44:51;100896.91;;;7.63;48.04
163;BME280;3946;48.958;8.284;2023-04-04T10:47:38;100891.28;;;7.94;47.78
163;BME280;3946;48.958;8.284;2023-04-04T10:50:23;100912.03;;;8.49;48.82
163;BME280;3946;48.958;8.284;2023-04-04T10:53:09;100897.63;;;8.62;47.62
163;BME280;3946;48.958;8.284;2023-04-04T10:55:57;100836.19;;;8.69;46.40
163;BME280;3946;48.958;8.284;2023-04-04T10:58:43;100861.09;;;8.53;46.58
163;BME280;3946;48.958;8.284;2023-04-04T11:01:51;100861.19;;;8.31;47.60
163;BME280;3946;48.958;8.284;2023-04-04T11:04:45;100836.31;;;7.92;46.42
163;BME280;3946;48.958;8.284;2023-04-04T11:07:34;100849.06;;;7.77;46.94
163;BME280;3946;48.958;8.284;2023-04-04T11:10:24;100859.28;;;8.36;46.81
163;BME280;3946;48.958;8.284;2023-04-04T11:13:14;100828.25;;;8.37;46.13
163;BME280;3946;48.958;8.284;2023-04-04T11:16:00;100823.53;;;8.46;46.38
163;BME280;3946;48.958;8.284;2023-04-04T11:18:48;100812.09;;;8.51;45.58
163;BME280;3946;48.958;8.284;2023-04-04T11:21:33;100853.84;;;8.78;46.70
163;BME280;3946;48.958;8.284;2023-04-04T11:24:19;100825.91;;;8.31;45.88
163;BME280;3946;48.958;8.284;2023-04-04T11:27:04;100802.41;;;8.19;45.81
163;BME280;3946;48.958;8.284;2023-04-04T11:29:56;100822.72;;;8.62;46.30
163;BME280;3946;48.958;8.284;2023-04-04T11:32:42;100814.69;;;8.68;45.86
163;BME280;3946;48.958;8.284;2023-04-04T11:35:28;100845.91;;;8.64;46.18
163;BME280;3946;48.958;8.284;2023-04-04T11:38:14;100816.53;;;8.12;45.45
163;BME280;3946;48.958;8.284;2023-04-04T11:41:01;100823.63;;;8.06;46.26
163;BME280;3946;48.958;8.284;2023-04-04T11:43:52;100830.88;;;8.17;46.81
163;BME280;3946;48.958;8.284;2023-04-04T11:46:41;100847.53;;;8.48;46.64
163;BME280;3946;48.958;8.284;2023-04-04T11:49:29;100798.00;;;8.58;45.15
163;BME280;3946;48.958;8.284;2023-04-04T11:52:15;100803.31;;;8.90;46.04
163;BME280;3946;48.958;8.284;2023-04-04T11:55:01;100816.00;;;9.11;45.92
163;BME280;3946;48.958;8.284;2023-04-04T11:57:46;100760.59;;;8.65;44.25
163;BME280;3946;48.958;8.284;2023-04-04T12:00:33;100796.97;;;8.61;44.84
163;BME280;3946;48.958;8.284;2023-04-04T12:03:20;100814.84;;;8.65;46.03
163;BME280;3946;48.958;8.284;2023-04-04T12:06:06;100771.78;;;8.66;44.95
163;BME280;3946;48.958;8.284;2023-04-04T12:08:51;100776.25;;;8.80;44.25
163;BME280;3946;48.958;8.284;2023-04-04T12:11:37;100818.13;;;8.69;46.81
163;BME280;3946;48.958;8.284;2023-04-04T12:14:23;100798.31;;;8.87;46.61
163;BME280;3946;48.958;8.284;2023-04-04T12:17:14;100760.75;;;8.97;44.56
163;BME280;3946;48.958;8.284;2023-04-04T12:20:01;100803.41;;;9.05;45.47
163;BME280;3946;48.958;8.284;2023-04-04T12:22:47;100763.53;;;9.09;44.41
163;BME280;3946;48.958;8.284;2023-04-04T12:25:36;100792.63;;;9.30;45.11
163;BME280;3946;48.958;8.284;2023-04-04T12:28:23;100752.16;;;9.62;43.83
163;BME280;3946;48.958;8.284;2023-04-04T12:31:10;100738.25;;;9.32;43.53
163;BME280;3946;48.958;8.284;2023-04-04T12:33:56;100742.22;;;9.06;43.60
163;BME280;3946;48.958;8.284;2023-04-04T12:36:42;100763.88;;;9.03;44.05
163;BME280;3946;48.958;8.284;2023-04-04T12:39:30;100754.78;;;9.12;44.20
163;BME280;3946;48.958;8.284;2023-04-04T12:42:19;100781.41;;;8.97;45.11
163;BME280;3946;48.958;8.284;2023-04-04T12:45:06;100737.78;;;9.08;43.34
163;BME280;3946;48.958;8.284;2023-04-04T12:47:51;100737.47;;;8.97;43.18
163;BME280;3946;48.958;8.284;2023-04-04T12:50:51;100740.84;;;8.82;43.44
163;BME280;3946;48.958;8.284;2023-04-04T12:53:50;100729.22;;;8.90;43.73
163;BME280;3946;48.958;8.284;2023-04-04T12:56:36;100719.78;;;9.39;43.40
163;BME280;3946;48.958;8.284;2023-04-04T12:59:22;100717.59;;;9.63;43.28
163;BME280;3946;48.958;8.284;2023-04-04T13:02:11;100711.75;;;9.44;43.00
163;BME280;3946;48.958;8.284;2023-04-04T13:04:57;100699.91;;;9.40;43.59
163;BME280;3946;48.958;8.284;2023-04-04T13:07:43;100713.78;;;9.55;43.42
163;BME280;3946;48.958;8.284;2023-04-04T13:10:30;100708.78;;;9.19;42.83
163;BME280;3946;48.958;8.284;2023-04-04T13:13:29;100748.09;;;9.25;44.30
163;BME280;3946;48.958;8.284;2023-04-04T13:16:29;100704.16;;;9.25;43.63
163;BME280;3946;48.958;8.284;2023-04-04T13:19:14;100711.47;;;9.17;43.89
163;BME280;3946;48.958;8.284;2023-04-04T13:22:01;100684.03;;;9.30;42.88
163;BME280;3946;48.958;8.284;2023-04-04T13:24:46;100720.44;;;9.74;43.89
163;BME280;3946;48.958;8.284;2023-04-04T13:27:33;100700.69;;;9.73;42.95
163;BME280;3946;48.958;8.284;2023-04-04T13:30:18;100694.66;;;10.20;42.72
163;BME280;3946;48.958;8.284;2023-04-04T13:33:05;100685.69;;;10.10;42.85
163;BME280;3946;48.958;8.284;2023-04-04T13:35:52;100675.06;;;9.53;41.98
163;BME280;3946;48.958;8.284;2023-04-04T13:38:37;100675.88;;;9.22;42.44
163;BME280;3946;48.958;8.284;2023-04-04T13:41:22;100667.09;;;9.09;42.44
163;BME280;3946;48.958;8.284;2023-04-04T13:44:09;100685.72;;;8.98;42.99
163;BME280;3946;48.958;8.284;2023-04-04T13:46:54;100727.19;;;9.45;44.09
163;BME280;3946;48.958;8.284;2023-04-04T13:49:40;100710.78;;;9.78;44.08
163;BME280;3946;48.958;8.284;2023-04-04T13:52:25;100665.88;;;9.47;42.31
163;BME280;3946;48.958;8.284;2023-04-04T13:55:10;100690.88;;;9.94;43.36
163;BME280;3946;48.958;8.284;2023-04-04T13:57:56;100661.78;;;9.59;42.75
163;BME280;3946;48.958;8.284;2023-04-04T14:00:42;100705.94;;;9.72;43.90
163;BME280;3946;48.958;8.284;2023-04-04T14:03:28;100700.75;;;10.03;43.13
163;BME280;3946;48.958;8.284;2023-04-04T14:06:14;100685.47;;;9.99;43.56
163;BME280;3946;48.958;8.284;2023-04-04T14:08:59;100661.97;;;10.17;42.64
163;BME280;3946;48.958;8.284;2023-04-04T14:11:44;100651.47;;;10.05;41.83
163;BME280;3946;48.958;8.284;2023-04-04T14:14:30;100677.38;;;10.05;42.67
163;BME280;3946;48.958;8.284;2023-04-04T14:17:16;100679.44;;;9.98;42.95
163;BME280;3946;48.958;8.284;2023-04-04T14:20:02;100649.13;;;10.00;42.50
163;BME280;3946;48.958;8.284;2023-04-04T14:22:48;100635.03;;;10.06;41.46
163;BME280;3946;48.958;8.284;2023-04-04T14:25:33;100652.69;;;10.13;41.79
163;BME280;3946;48.958;8.284;2023-04-04T14:28:22;100623.06;;;9.73;41.34
163;BME280;3946;48.958;8.284;2023-04-04T14:31:07;100657.41;;;9.91;41.78
163;BME280;3946;48.958;8.284;2023-04-04T14:33:54;100647.06;;;9.75;42.40
163;BME280;3946;48.958;8.284;2023-04-04T14:36:39;100657.00;;;9.99;42.24
163;BME280;3946;48.958;8.284;2023-04-04T14:39:25;100655.13;;;10.16;42.10
163;BME280;3946;48.958;8.284;2023-04-04T14:42:11;100653.69;;;9.81;42.23
163;BME280;3946;48.958;8.284;2023-04-04T14:44:56;100683.06;;;9.64;42.85
163;BME280;3946;48.958;8.284;2023-04-04T14:47:41;100681.16;;;9.68;43.12
163;BME280;3946;48.958;8.284;2023-04-04T14:50:28;100680.47;;;9.64;43.18
163;BME280;3946;48.958;8.284;2023-04-04T14:53:13;100691.88;;;9.92;43.75
163;BME280;3946;48.958;8.284;2023-04-04T14:55:58;100662.88;;;9.87;42.00
163;BME280;3946;48.958;8.284;2023-04-04T14:58:43;100662.34;;;9.80;42.15
163;BME280;3946;48.958;8.284;2023-04-04T15:01:29;100645.56;;;10.03;41.89
163;BME280;3946;48.958;8.284;2023-04-04T15:04:14;100653.34;;;9.87;42.42
163;BME280;3946;48.958;8.284;2023-04-04T15:07:03;100645.59;;;9.71;41.88
163;BME280;3946;48.958;8.284;2023-04-04T15:09:48;100657.34;;;9.61;42.80
163;BME280;3946;48.958;8.284;2023-04-04T15:12:33;100678.78;;;9.79;43.01
163;BME280;3946;48.958;8.284;2023-04-04T15:15:19;100684.63;;;9.35;43.40
163;BME280;3946;48.958;8.284;2023-04-04T15:18:04;100695.44;;;9.26;44.04
163;BME280;3946;48.958;8.284;2023-04-04T15:20:50;100724.03;;;9.40;44.76